SBMQ/MCP METAR and TAF weather

Enter ICAO airport designator
Station Type Date Time Source
SBMQ METAR 2022/01/26 19:00 UTC NOAA

SBMQ 261900Z 07006KT 9999 FEW025 SCT045 BKN070 28/25 Q1008 RETS


Station Type Date Time Source
SBMQ Decoded METAR 2022/01/26 19:00 UTC NOAA

Macapa, Brazil (SBMQ) 00-02N 050-03W
Jan 26, 2022 - 02:00 PM EST / 2022.01.26 1900 UTC
Wind: from the ENE (070 degrees) at 7 MPH (6 KT):0
Visibility: greater than 7 mile(s):0
Sky conditions: mostly cloudy
Temperature: 82 F (28 C)
Dew Point: 77 F (25 C)
Relative Humidity: 83%
Pressure (altimeter): 29.77 in. Hg (1008 hPa)
ob: SBMQ 261900Z 07006KT 9999 FEW025 SCT045 BKN070 28/25 Q1008 RETS
cycle: 19

Station Type Date Time Source
SBMQ TAF 2022/01/26 18:54 UTC NOAA

TAF SBMQ 261552Z 2618/2718 05006KT 7000 TS SCT020 FEW030CB TN24/2708Z TX30/2718Z
BECMG 2618/2621 03006KT NSW SCT020
BECMG 2700/2702 34006KT
BECMG 2706/2709 31005KT
BECMG 2712/2714 05006KT
TEMPO 2715/2717 TS SCT020 FEW030CB
RMK PGW

Example: see airport list